sensor_id;sensor_type;location;lat;lon;timestamp;temperature;humidity
14283;DHT22;72649;59.274;18.450;2023-11-21T00:01:26;0.50;99.90
14283;DHT22;72649;59.274;18.450;2023-11-21T00:03:53;0.50;99.90
14283;DHT22;72649;59.274;18.450;2023-11-21T00:06:22;0.50;99.90
14283;DHT22;72649;59.274;18.450;2023-11-21T00:08:49;0.50;99.90
14283;DHT22;72649;59.274;18.450;2023-11-21T00:11:15;0.50;99.90
14283;DHT22;72649;59.274;18.450;2023-11-21T00:13:42;0.60;99.90
14283;DHT22;72649;59.274;18.450;2023-11-21T00:16:10;0.60;99.90
14283;DHT22;72649;59.274;18.450;2023-11-21T00:18:37;0.60;99.90
14283;DHT22;72649;59.274;18.450;2023-11-21T00:21:05;0.70;99.90
14283;DHT22;72649;59.274;18.450;2023-11-21T00:23:31;0.70;99.90
14283;DHT22;72649;59.274;18.450;2023-11-21T00:25:58;0.70;99.90
14283;DHT22;72649;59.274;18.450;2023-11-21T00:28:26;0.70;99.90
14283;DHT22;72649;59.274;18.450;2023-11-21T00:30:53;0.70;99.90
14283;DHT22;72649;59.274;18.450;2023-11-21T00:33:20;0.70;99.90
14283;DHT22;72649;59.274;18.450;2023-11-21T00:35:47;0.70;99.90
14283;DHT22;72649;59.274;18.450;2023-11-21T00:38:17;0.70;99.90
14283;DHT22;72649;59.274;18.450;2023-11-21T00:40:46;0.80;99.90
14283;DHT22;72649;59.274;18.450;2023-11-21T00:43:13;0.80;99.90
14283;DHT22;72649;59.274;18.450;2023-11-21T00:45:40;0.80;99.90
14283;DHT22;72649;59.274;18.450;2023-11-21T00:48:10;0.80;99.90
14283;DHT22;72649;59.274;18.450;2023-11-21T00:50:37;0.80;99.90
14283;DHT22;72649;59.274;18.450;2023-11-21T00:53:03;0.80;99.90
14283;DHT22;72649;59.274;18.450;2023-11-21T00:55:30;0.80;99.90
14283;DHT22;72649;59.274;18.450;2023-11-21T00:57:58;0.80;99.90
14283;DHT22;72649;59.274;18.450;2023-11-21T01:00:25;0.80;99.90
14283;DHT22;72649;59.274;18.450;2023-11-21T01:02:52;0.80;99.90
14283;DHT22;72649;59.274;18.450;2023-11-21T01:05:19;0.80;99.90
14283;DHT22;72649;59.274;18.450;2023-11-21T01:07:46;0.80;99.90
14283;DHT22;72649;59.274;18.450;2023-11-21T01:10:13;0.80;99.90
14283;DHT22;72649;59.274;18.450;2023-11-21T01:12:40;0.90;99.90
14283;DHT22;72649;59.274;18.450;2023-11-21T01:15:08;0.90;99.90
14283;DHT22;72649;59.274;18.450;2023-11-21T01:17:36;0.90;99.90
14283;DHT22;72649;59.274;18.450;2023-11-21T01:20:03;0.90;99.90
14283;DHT22;72649;59.274;18.450;2023-11-21T01:22:33;0.90;99.90
14283;DHT22;72649;59.274;18.450;2023-11-21T01:25:00;0.90;99.90
14283;DHT22;72649;59.274;18.450;2023-11-21T01:27:27;0.90;99.90
14283;DHT22;72649;59.274;18.450;2023-11-21T01:29:54;0.90;99.90
14283;DHT22;72649;59.274;18.450;2023-11-21T01:32:21;0.90;99.90
14283;DHT22;72649;59.274;18.450;2023-11-21T01:34:49;0.90;99.90
14283;DHT22;72649;59.274;18.450;2023-11-21T01:37:17;0.90;99.90
14283;DHT22;72649;59.274;18.450;2023-11-21T01:39:44;0.90;99.90
14283;DHT22;72649;59.274;18.450;2023-11-21T01:42:11;0.90;99.90
14283;DHT22;72649;59.274;18.450;2023-11-21T01:44:40;0.90;99.90
14283;DHT22;72649;59.274;18.450;2023-11-21T01:47:08;0.90;99.90
14283;DHT22;72649;59.274;18.450;2023-11-21T01:49:36;0.90;99.90
14283;DHT22;72649;59.274;18.450;2023-11-21T01:52:04;0.90;99.90
14283;DHT22;72649;59.274;18.450;2023-11-21T01:54:32;0.90;99.90
14283;DHT22;72649;59.274;18.450;2023-11-21T01:56:59;1.00;99.90
14283;DHT22;72649;59.274;18.450;2023-11-21T01:59:36;1.00;99.90
14283;DHT22;72649;59.274;18.450;2023-11-21T02:02:05;1.00;99.90
14283;DHT22;72649;59.274;18.450;2023-11-21T02:04:36;1.00;99.90
14283;DHT22;72649;59.274;18.450;2023-11-21T02:07:04;1.00;99.90
14283;DHT22;72649;59.274;18.450;2023-11-21T02:09:34;1.00;99.90
14283;DHT22;72649;59.274;18.450;2023-11-21T02:12:01;1.00;99.90
14283;DHT22;72649;59.274;18.450;2023-11-21T02:14:28;1.00;99.90
14283;DHT22;72649;59.274;18.450;2023-11-21T02:16:56;1.00;99.90
14283;DHT22;72649;59.274;18.450;2023-11-21T02:19:27;1.10;99.90
14283;DHT22;72649;59.274;18.450;2023-11-21T02:21:57;1.10;99.90
14283;DHT22;72649;59.274;18.450;2023-11-21T02:24:27;1.10;99.90
14283;DHT22;72649;59.274;18.450;2023-11-21T02:26:54;1.10;99.90
14283;DHT22;72649;59.274;18.450;2023-11-21T02:29:22;1.10;99.90
14283;DHT22;72649;59.274;18.450;2023-11-21T02:31:52;1.10;99.90
14283;DHT22;72649;59.274;18.450;2023-11-21T02:34:22;1.10;99.90
14283;DHT22;72649;59.274;18.450;2023-11-21T02:36:52;1.10;99.90
14283;DHT22;72649;59.274;18.450;2023-11-21T02:39:19;1.20;99.90
14283;DHT22;72649;59.274;18.450;2023-11-21T02:41:49;1.10;99.90
14283;DHT22;72649;59.274;18.450;2023-11-21T02:44:17;1.20;99.90
14283;DHT22;72649;59.274;18.450;2023-11-21T02:46:44;1.20;99.90
14283;DHT22;72649;59.274;18.450;2023-11-21T02:49:11;1.20;99.90
14283;DHT22;72649;59.274;18.450;2023-11-21T02:51:39;1.20;99.90
14283;DHT22;72649;59.274;18.450;2023-11-21T02:54:06;1.20;99.90
14283;DHT22;72649;59.274;18.450;2023-11-21T02:56:36;1.20;99.90
14283;DHT22;72649;59.274;18.450;2023-11-21T02:59:04;1.20;99.90
14283;DHT22;72649;59.274;18.450;2023-11-21T03:01:31;1.20;99.90
14283;DHT22;72649;59.274;18.450;2023-11-21T03:03:58;1.20;99.90
14283;DHT22;72649;59.274;18.450;2023-11-21T03:06:25;1.20;99.90
14283;DHT22;72649;59.274;18.450;2023-11-21T03:08:52;1.30;99.90
14283;DHT22;72649;59.274;18.450;2023-11-21T03:11:19;1.20;99.90
14283;DHT22;72649;59.274;18.450;2023-11-21T03:13:46;1.20;99.90
14283;DHT22;72649;59.274;18.450;2023-11-21T03:16:15;1.20;99.90
14283;DHT22;72649;59.274;18.450;2023-11-21T03:18:42;1.20;99.90
14283;DHT22;72649;59.274;18.450;2023-11-21T03:21:09;1.20;99.90
14283;DHT22;72649;59.274;18.450;2023-11-21T03:23:36;1.20;99.90
14283;DHT22;72649;59.274;18.450;2023-11-21T03:26:04;1.20;99.90
14283;DHT22;72649;59.274;18.450;2023-11-21T03:28:31;1.20;99.90
14283;DHT22;72649;59.274;18.450;2023-11-21T03:30:58;1.20;99.90
14283;DHT22;72649;59.274;18.450;2023-11-21T03:33:25;1.20;99.90
14283;DHT22;72649;59.274;18.450;2023-11-21T03:35:52;1.20;99.90
14283;DHT22;72649;59.274;18.450;2023-11-21T03:38:20;1.20;99.90
14283;DHT22;72649;59.274;18.450;2023-11-21T03:40:47;1.20;99.90
14283;DHT22;72649;59.274;18.450;2023-11-21T03:43:14;1.20;99.90
14283;DHT22;72649;59.274;18.450;2023-11-21T03:45:41;1.20;99.90
14283;DHT22;72649;59.274;18.450;2023-11-21T03:48:08;1.20;99.90
14283;DHT22;72649;59.274;18.450;2023-11-21T03:50:35;1.20;99.90
14283;DHT22;72649;59.274;18.450;2023-11-21T03:53:05;1.20;99.90
14283;DHT22;72649;59.274;18.450;2023-11-21T03:55:32;1.20;99.90
14283;DHT22;72649;59.274;18.450;2023-11-21T03:57:59;1.20;99.90
14283;DHT22;72649;59.274;18.450;2023-11-21T04:00:26;1.20;99.90
14283;DHT22;72649;59.274;18.450;2023-11-21T04:02:53;1.20;99.90
14283;DHT22;72649;59.274;18.450;2023-11-21T04:05:21;1.20;99.90
14283;DHT22;72649;59.274;18.450;2023-11-21T04:07:50;1.20;99.90
14283;DHT22;72649;59.274;18.450;2023-11-21T04:10:18;1.20;99.90
14283;DHT22;72649;59.274;18.450;2023-11-21T04:12:45;1.20;99.90
14283;DHT22;72649;59.274;18.450;2023-11-21T04:15:12;1.20;99.90
14283;DHT22;72649;59.274;18.450;2023-11-21T04:17:41;1.20;99.90
14283;DHT22;72649;59.274;18.450;2023-11-21T04:20:08;1.20;99.90
14283;DHT22;72649;59.274;18.450;2023-11-21T04:22:41;1.20;99.90
14283;DHT22;72649;59.274;18.450;2023-11-21T04:25:09;1.20;99.90
14283;DHT22;72649;59.274;18.450;2023-11-21T04:27:39;1.20;99.90
14283;DHT22;72649;59.274;18.450;2023-11-21T04:30:06;1.20;99.90
14283;DHT22;72649;59.274;18.450;2023-11-21T04:32:34;1.20;99.90
14283;DHT22;72649;59.274;18.450;2023-11-21T04:35:01;1.30;99.90
14283;DHT22;72649;59.274;18.450;2023-11-21T04:37:28;1.30;99.90
14283;DHT22;72649;59.274;18.450;2023-11-21T04:39:55;1.30;99.90
14283;DHT22;72649;59.274;18.450;2023-11-21T04:42:22;1.30;99.90
14283;DHT22;72649;59.274;18.450;2023-11-21T04:44:49;1.30;99.90
14283;DHT22;72649;59.274;18.450;2023-11-21T04:47:16;1.30;99.90
14283;DHT22;72649;59.274;18.450;2023-11-21T04:49:46;1.30;99.90
14283;DHT22;72649;59.274;18.450;2023-11-21T04:52:14;1.30;99.90
14283;DHT22;72649;59.274;18.450;2023-11-21T04:54:40;1.30;99.90
14283;DHT22;72649;59.274;18.450;2023-11-21T04:57:07;1.20;99.90
14283;DHT22;72649;59.274;18.450;2023-11-21T04:59:34;1.20;99.90
14283;DHT22;72649;59.274;18.450;2023-11-21T05:02:02;1.20;99.90
14283;DHT22;72649;59.274;18.450;2023-11-21T05:04:29;1.20;99.90
14283;DHT22;72649;59.274;18.450;2023-11-21T05:06:57;1.20;99.90
14283;DHT22;72649;59.274;18.450;2023-11-21T05:09:23;1.20;99.90
14283;DHT22;72649;59.274;18.450;2023-11-21T05:11:50;1.30;99.90
14283;DHT22;72649;59.274;18.450;2023-11-21T05:14:17;1.20;99.90
14283;DHT22;72649;59.274;18.450;2023-11-21T05:16:46;1.20;99.90
14283;DHT22;72649;59.274;18.450;2023-11-21T05:19:13;1.30;99.90
14283;DHT22;72649;59.274;18.450;2023-11-21T05:21:40;1.20;99.90
14283;DHT22;72649;59.274;18.450;2023-11-21T05:24:07;1.30;99.90
14283;DHT22;72649;59.274;18.450;2023-11-21T05:26:34;1.30;99.90
14283;DHT22;72649;59.274;18.450;2023-11-21T05:29:01;1.30;99.90
14283;DHT22;72649;59.274;18.450;2023-11-21T05:31:28;1.30;99.90
14283;DHT22;72649;59.274;18.450;2023-11-21T05:33:55;1.30;99.90
14283;DHT22;72649;59.274;18.450;2023-11-21T05:36:22;1.30;99.90
14283;DHT22;72649;59.274;18.450;2023-11-21T05:38:49;1.30;99.90
14283;DHT22;72649;59.274;18.450;2023-11-21T05:41:16;1.30;99.90
14283;DHT22;72649;59.274;18.450;2023-11-21T05:43:43;1.30;99.90
14283;DHT22;72649;59.274;18.450;2023-11-21T05:46:10;1.30;99.90
14283;DHT22;72649;59.274;18.450;2023-11-21T05:48:37;1.40;99.90
14283;DHT22;72649;59.274;18.450;2023-11-21T05:51:08;1.40;99.90
14283;DHT22;72649;59.274;18.450;2023-11-21T05:53:39;1.40;99.90
14283;DHT22;72649;59.274;18.450;2023-11-21T05:56:06;1.40;99.90
14283;DHT22;72649;59.274;18.450;2023-11-21T05:58:34;1.40;99.90
14283;DHT22;72649;59.274;18.450;2023-11-21T06:01:01;1.40;99.90
14283;DHT22;72649;59.274;18.450;2023-11-21T06:03:28;1.40;99.90
14283;DHT22;72649;59.274;18.450;2023-11-21T06:05:55;1.40;99.90
14283;DHT22;72649;59.274;18.450;2023-11-21T06:08:22;1.50;99.90
14283;DHT22;72649;59.274;18.450;2023-11-21T06:10:49;1.50;99.90
14283;DHT22;72649;59.274;18.450;2023-11-21T06:13:16;1.50;99.90
14283;DHT22;72649;59.274;18.450;2023-11-21T06:15:46;1.50;99.90
14283;DHT22;72649;59.274;18.450;2023-11-21T06:18:13;1.60;99.90
14283;DHT22;72649;59.274;18.450;2023-11-21T06:20:41;1.50;99.90
14283;DHT22;72649;59.274;18.450;2023-11-21T06:23:08;1.60;99.90
14283;DHT22;72649;59.274;18.450;2023-11-21T06:25:35;1.50;99.90
14283;DHT22;72649;59.274;18.450;2023-11-21T06:28:03;1.60;99.90
14283;DHT22;72649;59.274;18.450;2023-11-21T06:30:30;1.60;99.90
14283;DHT22;72649;59.274;18.450;2023-11-21T06:32:57;1.60;99.90
14283;DHT22;72649;59.274;18.450;2023-11-21T06:35:24;1.60;99.90
14283;DHT22;72649;59.274;18.450;2023-11-21T06:37:51;1.70;99.90
14283;DHT22;72649;59.274;18.450;2023-11-21T06:40:19;1.70;99.90
14283;DHT22;72649;59.274;18.450;2023-11-21T06:42:47;1.70;99.90
14283;DHT22;72649;59.274;18.450;2023-11-21T06:45:15;1.70;99.90
14283;DHT22;72649;59.274;18.450;2023-11-21T06:47:42;1.70;99.90
14283;DHT22;72649;59.274;18.450;2023-11-21T06:50:10;1.70;99.90
14283;DHT22;72649;59.274;18.450;2023-11-21T06:52:37;1.70;99.90
14283;DHT22;72649;59.274;18.450;2023-11-21T06:55:05;1.70;99.90
14283;DHT22;72649;59.274;18.450;2023-11-21T06:57:35;1.70;99.90
14283;DHT22;72649;59.274;18.450;2023-11-21T07:00:02;1.70;99.90
14283;DHT22;72649;59.274;18.450;2023-11-21T07:02:31;1.70;99.90
14283;DHT22;72649;59.274;18.450;2023-11-21T07:04:58;1.80;99.90
14283;DHT22;72649;59.274;18.450;2023-11-21T07:07:25;1.80;99.90
14283;DHT22;72649;59.274;18.450;2023-11-21T07:09:52;1.80;99.90
14283;DHT22;72649;59.274;18.450;2023-11-21T07:12:19;1.80;99.90
14283;DHT22;72649;59.274;18.450;2023-11-21T07:14:46;1.80;99.90
14283;DHT22;72649;59.274;18.450;2023-11-21T07:17:13;1.90;99.90
14283;DHT22;72649;59.274;18.450;2023-11-21T07:19:40;1.80;99.90
14283;DHT22;72649;59.274;18.450;2023-11-21T07:22:08;1.80;99.90
14283;DHT22;72649;59.274;18.450;2023-11-21T07:24:36;1.90;99.90
14283;DHT22;72649;59.274;18.450;2023-11-21T07:27:03;1.90;99.90
14283;DHT22;72649;59.274;18.450;2023-11-21T07:29:30;1.90;99.90
14283;DHT22;72649;59.274;18.450;2023-11-21T07:31:58;1.90;99.90
14283;DHT22;72649;59.274;18.450;2023-11-21T07:34:25;1.90;99.90
14283;DHT22;72649;59.274;18.450;2023-11-21T07:36:52;1.90;99.90
14283;DHT22;72649;59.274;18.450;2023-11-21T07:39:19;2.00;99.90
14283;DHT22;72649;59.274;18.450;2023-11-21T07:41:46;1.90;99.90
14283;DHT22;72649;59.274;18.450;2023-11-21T07:44:19;2.00;99.90
14283;DHT22;72649;59.274;18.450;2023-11-21T07:46:47;1.90;99.90
14283;DHT22;72649;59.274;18.450;2023-11-21T07:49:14;2.00;99.90
14283;DHT22;72649;59.274;18.450;2023-11-21T07:51:43;2.00;99.90
14283;DHT22;72649;59.274;18.450;2023-11-21T07:54:11;2.10;99.90
14283;DHT22;72649;59.274;18.450;2023-11-21T07:56:38;2.00;99.90
14283;DHT22;72649;59.274;18.450;2023-11-21T07:59:05;2.00;99.90
14283;DHT22;72649;59.274;18.450;2023-11-21T08:01:32;2.00;99.90
14283;DHT22;72649;59.274;18.450;2023-11-21T08:04:00;2.00;99.90
14283;DHT22;72649;59.274;18.450;2023-11-21T08:06:31;2.10;99.90
14283;DHT22;72649;59.274;18.450;2023-11-21T08:08:59;2.10;99.90
14283;DHT22;72649;59.274;18.450;2023-11-21T08:11:26;2.10;99.90
14283;DHT22;72649;59.274;18.450;2023-11-21T08:13:56;2.10;99.90
14283;DHT22;72649;59.274;18.450;2023-11-21T08:16:23;2.10;99.90
14283;DHT22;72649;59.274;18.450;2023-11-21T08:18:51;2.20;99.90
14283;DHT22;72649;59.274;18.450;2023-11-21T08:21:18;2.20;99.90
14283;DHT22;72649;59.274;18.450;2023-11-21T08:23:46;2.20;99.90
14283;DHT22;72649;59.274;18.450;2023-11-21T08:26:16;2.20;99.90
14283;DHT22;72649;59.274;18.450;2023-11-21T08:28:43;2.30;99.90
14283;DHT22;72649;59.274;18.450;2023-11-21T08:31:10;2.30;99.90
14283;DHT22;72649;59.274;18.450;2023-11-21T08:33:40;2.40;99.90
14283;DHT22;72649;59.274;18.450;2023-11-21T08:36:10;2.30;99.90
14283;DHT22;72649;59.274;18.450;2023-11-21T08:38:39;2.40;99.90
14283;DHT22;72649;59.274;18.450;2023-11-21T08:41:07;2.40;99.90
14283;DHT22;72649;59.274;18.450;2023-11-21T08:43:37;2.40;99.90
14283;DHT22;72649;59.274;18.450;2023-11-21T08:46:06;2.40;99.90
14283;DHT22;72649;59.274;18.450;2023-11-21T08:48:36;2.50;99.90
14283;DHT22;72649;59.274;18.450;2023-11-21T08:51:03;2.40;99.90
14283;DHT22;72649;59.274;18.450;2023-11-21T08:53:31;2.40;99.90
14283;DHT22;72649;59.274;18.450;2023-11-21T08:55:58;2.40;99.90
14283;DHT22;72649;59.274;18.450;2023-11-21T08:58:25;2.50;99.90
14283;DHT22;72649;59.274;18.450;2023-11-21T09:00:52;2.50;99.90
14283;DHT22;72649;59.274;18.450;2023-11-21T09:03:19;2.50;99.90
14283;DHT22;72649;59.274;18.450;2023-11-21T09:05:46;2.60;99.90
14283;DHT22;72649;59.274;18.450;2023-11-21T09:08:13;2.50;99.90
14283;DHT22;72649;59.274;18.450;2023-11-21T09:10:40;2.50;99.90
14283;DHT22;72649;59.274;18.450;2023-11-21T09:13:09;2.50;99.90
14283;DHT22;72649;59.274;18.450;2023-11-21T09:15:37;2.50;99.90
14283;DHT22;72649;59.274;18.450;2023-11-21T09:18:04;2.40;99.90
14283;DHT22;72649;59.274;18.450;2023-11-21T09:20:31;2.40;99.90
14283;DHT22;72649;59.274;18.450;2023-11-21T09:22:58;2.40;99.90
14283;DHT22;72649;59.274;18.450;2023-11-21T09:25:25;2.40;99.90
14283;DHT22;72649;59.274;18.450;2023-11-21T09:27:53;2.40;99.90
14283;DHT22;72649;59.274;18.450;2023-11-21T09:30:20;2.40;99.90
14283;DHT22;72649;59.274;18.450;2023-11-21T09:32:46;2.40;99.90
14283;DHT22;72649;59.274;18.450;2023-11-21T09:35:14;2.30;99.90
14283;DHT22;72649;59.274;18.450;2023-11-21T09:37:43;2.40;99.90
14283;DHT22;72649;59.274;18.450;2023-11-21T09:40:12;2.30;99.90
14283;DHT22;72649;59.274;18.450;2023-11-21T09:42:43;2.30;99.90
14283;DHT22;72649;59.274;18.450;2023-11-21T09:45:35;2.30;99.90
14283;DHT22;72649;59.274;18.450;2023-11-21T09:48:02;2.40;99.90
14283;DHT22;72649;59.274;18.450;2023-11-21T09:50:29;2.30;99.90
14283;DHT22;72649;59.274;18.450;2023-11-21T09:55:46;2.30;99.90
14283;DHT22;72649;59.274;18.450;2023-11-21T09:58:14;2.30;99.90
14283;DHT22;72649;59.274;18.450;2023-11-21T10:00:43;2.40;99.90
14283;DHT22;72649;59.274;18.450;2023-11-21T10:03:11;2.40;99.90
14283;DHT22;72649;59.274;18.450;2023-11-21T10:05:39;2.30;99.90
14283;DHT22;72649;59.274;18.450;2023-11-21T10:08:08;2.40;99.90
14283;DHT22;72649;59.274;18.450;2023-11-21T10:10:38;2.50;99.90
14283;DHT22;72649;59.274;18.450;2023-11-21T10:13:11;2.40;99.90
14283;DHT22;72649;59.274;18.450;2023-11-21T10:15:40;2.50;99.90
14283;DHT22;72649;59.274;18.450;2023-11-21T10:18:11;2.50;99.90
14283;DHT22;72649;59.274;18.450;2023-11-21T10:20:40;2.60;99.90
14283;DHT22;72649;59.274;18.450;2023-11-21T10:23:06;2.70;99.90
14283;DHT22;72649;59.274;18.450;2023-11-21T10:25:38;2.70;99.90
14283;DHT22;72649;59.274;18.450;2023-11-21T10:28:05;2.80;99.90
14283;DHT22;72649;59.274;18.450;2023-11-21T10:30:34;2.80;99.90
14283;DHT22;72649;59.274;18.450;2023-11-21T10:33:05;2.80;99.90
14283;DHT22;72649;59.274;18.450;2023-11-21T10:35:46;2.80;99.90
14283;DHT22;72649;59.274;18.450;2023-11-21T10:38:22;2.80;99.90
14283;DHT22;72649;59.274;18.450;2023-11-21T10:40:51;2.80;99.90
14283;DHT22;72649;59.274;18.450;2023-11-21T10:43:19;2.80;99.90
14283;DHT22;72649;59.274;18.450;2023-11-21T10:45:47;2.90;99.90
14283;DHT22;72649;59.274;18.450;2023-11-21T10:48:15;2.90;99.90
14283;DHT22;72649;59.274;18.450;2023-11-21T10:50:44;3.10;99.90
14283;DHT22;72649;59.274;18.450;2023-11-21T10:53:11;3.00;99.90
14283;DHT22;72649;59.274;18.450;2023-11-21T10:55:39;3.00;99.90
14283;DHT22;72649;59.274;18.450;2023-11-21T10:58:06;3.00;99.90
14283;DHT22;72649;59.274;18.450;2023-11-21T11:00:34;2.90;99.90
14283;DHT22;72649;59.274;18.450;2023-11-21T11:03:02;2.90;99.90
14283;DHT22;72649;59.274;18.450;2023-11-21T11:05:30;2.80;99.90
14283;DHT22;72649;59.274;18.450;2023-11-21T11:08:03;2.80;99.90
14283;DHT22;72649;59.274;18.450;2023-11-21T11:10:31;2.90;99.90
14283;DHT22;72649;59.274;18.450;2023-11-21T11:12:58;2.80;99.90
14283;DHT22;72649;59.274;18.450;2023-11-21T11:15:26;2.70;99.90
14283;DHT22;72649;59.274;18.450;2023-11-21T11:17:56;2.70;99.90
14283;DHT22;72649;59.274;18.450;2023-11-21T11:20:30;2.70;99.90
14283;DHT22;72649;59.274;18.450;2023-11-21T11:29:03;2.80;99.90
14283;DHT22;72649;59.274;18.450;2023-11-21T11:34:32;2.80;99.90
14283;DHT22;72649;59.274;18.450;2023-11-21T11:37:02;2.90;99.90
14283;DHT22;72649;59.274;18.450;2023-11-21T11:42:06;2.90;99.90
14283;DHT22;72649;59.274;18.450;2023-11-21T11:44:52;2.90;99.90
14283;DHT22;72649;59.274;18.450;2023-11-21T11:47:27;2.90;99.90
14283;DHT22;72649;59.274;18.450;2023-11-21T11:50:11;2.90;99.90
14283;DHT22;72649;59.274;18.450;2023-11-21T11:52:51;2.90;99.90
14283;DHT22;72649;59.274;18.450;2023-11-21T11:55:21;2.90;99.90
14283;DHT22;72649;59.274;18.450;2023-11-21T11:57:49;2.80;99.90
14283;DHT22;72649;59.274;18.450;2023-11-21T12:02:57;2.80;99.90
14283;DHT22;72649;59.274;18.450;2023-11-21T12:05:26;2.80;99.90
14283;DHT22;72649;59.274;18.450;2023-11-21T12:08:01;2.90;99.90
14283;DHT22;72649;59.274;18.450;2023-11-21T12:10:38;2.80;99.90
14283;DHT22;72649;59.274;18.450;2023-11-21T12:13:07;2.80;99.90
14283;DHT22;72649;59.274;18.450;2023-11-21T12:15:35;2.80;99.90
14283;DHT22;72649;59.274;18.450;2023-11-21T12:18:04;2.80;99.90
14283;DHT22;72649;59.274;18.450;2023-11-21T12:20:32;2.90;99.90
14283;DHT22;72649;59.274;18.450;2023-11-21T12:23:05;2.90;99.90
14283;DHT22;72649;59.274;18.450;2023-11-21T12:25:32;2.90;99.90
14283;DHT22;72649;59.274;18.450;2023-11-21T12:28:01;2.90;99.90
14283;DHT22;72649;59.274;18.450;2023-11-21T12:30:30;2.80;99.90
14283;DHT22;72649;59.274;18.450;2023-11-21T12:32:59;2.80;99.90
14283;DHT22;72649;59.274;18.450;2023-11-21T12:35:29;2.70;99.90
14283;DHT22;72649;59.274;18.450;2023-11-21T12:37:57;2.70;99.90
14283;DHT22;72649;59.274;18.450;2023-11-21T12:40:26;2.60;99.90
14283;DHT22;72649;59.274;18.450;2023-11-21T12:42:59;2.60;99.90
14283;DHT22;72649;59.274;18.450;2023-11-21T12:45:28;2.60;99.90
14283;DHT22;72649;59.274;18.450;2023-11-21T12:47:58;2.60;99.90
14283;DHT22;72649;59.274;18.450;2023-11-21T12:50:28;2.50;99.90
14283;DHT22;72649;59.274;18.450;2023-11-21T12:53:01;2.60;99.90
14283;DHT22;72649;59.274;18.450;2023-11-21T12:55:34;2.60;99.90
14283;DHT22;72649;59.274;18.450;2023-11-21T12:58:08;2.60;99.90
14283;DHT22;72649;59.274;18.450;2023-11-21T13:00:45;2.60;99.90
14283;DHT22;72649;59.274;18.450;2023-11-21T13:03:14;2.50;99.90
14283;DHT22;72649;59.274;18.450;2023-11-21T13:05:48;2.50;99.90
14283;DHT22;72649;59.274;18.450;2023-11-21T13:08:24;2.40;99.90
14283;DHT22;72649;59.274;18.450;2023-11-21T13:10:53;2.40;99.90
14283;DHT22;72649;59.274;18.450;2023-11-21T13:13:23;2.40;99.90
14283;DHT22;72649;59.274;18.450;2023-11-21T13:15:56;2.40;99.90
14283;DHT22;72649;59.274;18.450;2023-11-21T13:18:24;2.40;99.90
14283;DHT22;72649;59.274;18.450;2023-11-21T13:20:58;2.30;99.90
14283;DHT22;72649;59.274;18.450;2023-11-21T13:23:26;2.30;99.90
14283;DHT22;72649;59.274;18.450;2023-11-21T13:25:54;2.30;99.90
14283;DHT22;72649;59.274;18.450;2023-11-21T13:28:32;2.30;99.90
14283;DHT22;72649;59.274;18.450;2023-11-21T13:31:01;2.30;99.90
14283;DHT22;72649;59.274;18.450;2023-11-21T13:33:31;2.30;99.90
14283;DHT22;72649;59.274;18.450;2023-11-21T13:35:59;2.30;99.90
14283;DHT22;72649;59.274;18.450;2023-11-21T13:38:28;2.20;99.90
14283;DHT22;72649;59.274;18.450;2023-11-21T13:40:59;2.20;99.90
14283;DHT22;72649;59.274;18.450;2023-11-21T13:43:27;2.10;99.90
14283;DHT22;72649;59.274;18.450;2023-11-21T13:45:55;2.10;99.90
14283;DHT22;72649;59.274;18.450;2023-11-21T13:48:30;2.10;99.90
14283;DHT22;72649;59.274;18.450;2023-11-21T13:51:15;2.00;99.90
14283;DHT22;72649;59.274;18.450;2023-11-21T13:53:46;2.00;99.90
14283;DHT22;72649;59.274;18.450;2023-11-21T13:56:16;2.00;99.90
14283;DHT22;72649;59.274;18.450;2023-11-21T13:58:47;1.90;99.90
14283;DHT22;72649;59.274;18.450;2023-11-21T14:01:20;1.90;99.90
14283;DHT22;72649;59.274;18.450;2023-11-21T14:06:29;1.80;99.90
14283;DHT22;72649;59.274;18.450;2023-11-21T14:09:03;1.80;99.90
14283;DHT22;72649;59.274;18.450;2023-11-21T14:11:32;1.70;99.90
14283;DHT22;72649;59.274;18.450;2023-11-21T14:14:09;1.70;99.90
14283;DHT22;72649;59.274;18.450;2023-11-21T14:16:36;1.60;99.90
14283;DHT22;72649;59.274;18.450;2023-11-21T14:19:03;1.50;99.90
14283;DHT22;72649;59.274;18.450;2023-11-21T14:21:46;1.60;99.90
14283;DHT22;72649;59.274;18.450;2023-11-21T14:24:13;1.50;99.90
14283;DHT22;72649;59.274;18.450;2023-11-21T14:26:41;1.50;99.90
14283;DHT22;72649;59.274;18.450;2023-11-21T14:29:09;1.50;99.90
14283;DHT22;72649;59.274;18.450;2023-11-21T14:31:39;1.50;99.90
14283;DHT22;72649;59.274;18.450;2023-11-21T14:34:07;1.40;99.90
14283;DHT22;72649;59.274;18.450;2023-11-21T14:36:34;1.40;99.90
14283;DHT22;72649;59.274;18.450;2023-11-21T14:39:03;1.40;99.90
14283;DHT22;72649;59.274;18.450;2023-11-21T14:41:35;1.30;99.90
14283;DHT22;72649;59.274;18.450;2023-11-21T14:44:05;1.20;99.90
14283;DHT22;72649;59.274;18.450;2023-11-21T14:46:34;1.20;99.90
14283;DHT22;72649;59.274;18.450;2023-11-21T14:49:03;1.10;99.90
14283;DHT22;72649;59.274;18.450;2023-11-21T14:51:51;1.10;99.90
14283;DHT22;72649;59.274;18.450;2023-11-21T14:54:32;1.10;99.90
14283;DHT22;72649;59.274;18.450;2023-11-21T14:57:13;1.00;99.90
14283;DHT22;72649;59.274;18.450;2023-11-21T14:59:49;1.00;99.90
14283;DHT22;72649;59.274;18.450;2023-11-21T15:02:24;1.00;99.90
14283;DHT22;72649;59.274;18.450;2023-11-21T15:05:10;1.00;99.90
14283;DHT22;72649;59.274;18.450;2023-11-21T15:07:43;0.90;99.90
14283;DHT22;72649;59.274;18.450;2023-11-21T15:10:12;0.90;99.90
14283;DHT22;72649;59.274;18.450;2023-11-21T15:12:43;0.80;99.90
14283;DHT22;72649;59.274;18.450;2023-11-21T15:15:11;0.80;99.90
14283;DHT22;72649;59.274;18.450;2023-11-21T15:17:41;0.90;99.90
14283;DHT22;72649;59.274;18.450;2023-11-21T15:20:10;0.90;99.90
14283;DHT22;72649;59.274;18.450;2023-11-21T15:22:39;0.80;99.90
14283;DHT22;72649;59.274;18.450;2023-11-21T15:25:07;0.80;99.90
14283;DHT22;72649;59.274;18.450;2023-11-21T15:27:37;0.80;99.90
14283;DHT22;72649;59.274;18.450;2023-11-21T15:30:05;0.70;99.90
14283;DHT22;72649;59.274;18.450;2023-11-21T15:32:32;0.70;99.90
14283;DHT22;72649;59.274;18.450;2023-11-21T15:34:59;0.70;99.90
14283;DHT22;72649;59.274;18.450;2023-11-21T15:37:26;0.60;99.90
14283;DHT22;72649;59.274;18.450;2023-11-21T15:39:55;0.60;99.90
14283;DHT22;72649;59.274;18.450;2023-11-21T15:42:22;0.60;99.90
14283;DHT22;72649;59.274;18.450;2023-11-21T15:44:49;0.60;99.90
14283;DHT22;72649;59.274;18.450;2023-11-21T15:47:18;0.60;99.90
14283;DHT22;72649;59.274;18.450;2023-11-21T15:49:45;0.60;99.90
14283;DHT22;72649;59.274;18.450;2023-11-21T15:52:17;0.60;99.90
14283;DHT22;72649;59.274;18.450;2023-11-21T15:54:44;0.60;99.90
14283;DHT22;72649;59.274;18.450;2023-11-21T15:57:13;0.60;99.90
14283;DHT22;72649;59.274;18.450;2023-11-21T15:59:41;0.60;99.90